createdAt,value
2017-11-17T00:00:48.486Z,1013.2
2017-11-17T00:01:50.082Z,1013.3
2017-11-17T00:02:51.726Z,1013.2
2017-11-17T00:03:53.384Z,1013.3
2017-11-17T00:04:54.981Z,1013.3
2017-11-17T00:05:56.738Z,1013.2
2017-11-17T00:06:58.347Z,1013.2
2017-11-17T00:08:01.006Z,1013.3
2017-11-17T00:09:02.583Z,1013.3
2017-11-17T00:10:04.347Z,1013.2
2017-11-17T00:11:05.999Z,1013.2
2017-11-17T00:12:07.791Z,1013.3
2017-11-17T00:13:09.354Z,1013.3
2017-11-17T00:14:10.920Z,1013.2
2017-11-17T00:15:12.576Z,1013.2
2017-11-17T00:16:14.248Z,1013.2
2017-11-17T00:17:15.871Z,1013.2
2017-11-17T00:18:17.488Z,1013.2
2017-11-17T00:19:19.056Z,1013.2
2017-11-17T00:20:20.630Z,1013.3
2017-11-17T00:21:22.176Z,1013.2
2017-11-17T00:22:23.755Z,1013.2
2017-11-17T00:23:25.300Z,1013.2
2017-11-17T00:24:26.890Z,1013.2
2017-11-17T00:25:28.368Z,1013.2
2017-11-17T00:26:29.932Z,1013.2
2017-11-17T00:27:31.465Z,1013.3
2017-11-17T00:28:32.985Z,1013.3
2017-11-17T00:29:34.456Z,1013.2
2017-11-17T00:30:36.012Z,1013.3
2017-11-17T00:31:37.473Z,1013.2
2017-11-17T00:32:39.040Z,1013.2
2017-11-17T00:33:40.595Z,1013.2
2017-11-17T00:34:42.181Z,1013.2
2017-11-17T00:35:43.704Z,1013.2
2017-11-17T00:36:45.283Z,1013.2
2017-11-17T00:37:46.823Z,1013.2
2017-11-17T00:38:48.450Z,1013.2
2017-11-17T00:39:50.076Z,1013.1
2017-11-17T00:40:52.595Z,1013.2
2017-11-17T00:41:54.134Z,1013.2
2017-11-17T00:42:55.676Z,1013.2
2017-11-17T00:43:57.213Z,1013.1
2017-11-17T00:44:58.863Z,1013.1
2017-11-17T00:46:00.310Z,1013.1
2017-11-17T00:47:01.898Z,1013.2
2017-11-17T00:48:03.433Z,1013.2
2017-11-17T00:49:05.091Z,1013.2
2017-11-17T00:50:06.602Z,1013.3
2017-11-17T00:51:08.194Z,1013.3
2017-11-17T00:52:09.692Z,1013.3
2017-11-17T00:53:11.276Z,1013.3
2017-11-17T00:54:12.798Z,1013.3
2017-11-17T00:55:14.454Z,1013.3
2017-11-17T00:56:16.060Z,1013.4
2017-11-17T00:57:17.688Z,1013.3
2017-11-17T00:58:19.325Z,1013.4
2017-11-17T00:59:20.959Z,1013.4
2017-11-17T01:00:22.664Z,1013.4
2017-11-17T01:01:24.320Z,1013.3
2017-11-17T01:02:26.939Z,1013.3
2017-11-17T01:03:28.593Z,1013.3
2017-11-17T01:04:30.293Z,1013.4
2017-11-17T01:05:31.825Z,1013.4
2017-11-17T01:06:34.729Z,1013.4
2017-11-17T01:07:36.291Z,1013.4
2017-11-17T01:08:37.920Z,1013.4
2017-11-17T01:09:39.520Z,1013.4
2017-11-17T01:10:41.229Z,1013.4
2017-11-17T01:11:42.855Z,1013.4
2017-11-17T01:12:44.395Z,1013.5
2017-11-17T01:13:45.993Z,1013.5
2017-11-17T01:14:47.717Z,1013.5
2017-11-17T01:15:49.368Z,1013.4
2017-11-17T01:16:51.056Z,1013.4
2017-11-17T01:17:52.716Z,1013.4
2017-11-17T01:18:55.350Z,1013.4
2017-11-17T01:19:56.956Z,1013.3
2017-11-17T01:20:58.546Z,1013.3
2017-11-17T01:22:00.076Z,1013.4
2017-11-17T01:23:01.702Z,1013.4
2017-11-17T01:24:03.213Z,1013.4
2017-11-17T01:25:04.766Z,1013.4
2017-11-17T01:26:06.249Z,1013.4
2017-11-17T01:27:07.756Z,1013.4
2017-11-17T01:28:09.245Z,1013.4
2017-11-17T01:29:10.892Z,1013.4
2017-11-17T01:30:12.480Z,1013.4
2017-11-17T01:31:14.053Z,1013.4
2017-11-17T01:32:15.597Z,1013.4
2017-11-17T01:33:17.232Z,1013.4
2017-11-17T01:34:18.754Z,1013.3
2017-11-17T01:35:22.347Z,1013.3
2017-11-17T01:36:23.869Z,1013.3
2017-11-17T01:37:25.796Z,1013.3
2017-11-17T01:38:27.376Z,1013.2
2017-11-17T01:39:29.042Z,1013.3
2017-11-17T01:40:30.528Z,1013.2
2017-11-17T01:41:33.294Z,1013.2
2017-11-17T01:42:34.869Z,1013.2
2017-11-17T01:43:36.529Z,1013.2
2017-11-17T01:44:38.185Z,1013.2
2017-11-17T01:45:39.755Z,1013.2
2017-11-17T01:46:41.254Z,1013.3
2017-11-17T01:47:43.818Z,1013.2
2017-11-17T01:48:45.373Z,1013.2
2017-11-17T01:49:46.923Z,1013.2
2017-11-17T01:50:48.454Z,1013.2
2017-11-17T01:51:49.997Z,1013.2
2017-11-17T01:52:51.481Z,1013.2
2017-11-17T01:53:53.021Z,1013.3
2017-11-17T01:54:54.580Z,1013.3
2017-11-17T01:55:56.168Z,1013.2
2017-11-17T01:56:57.696Z,1013.2
2017-11-17T01:57:59.286Z,1013.2
2017-11-17T01:59:00.786Z,1013.2
2017-11-17T02:00:02.352Z,1013.2
2017-11-17T02:01:03.899Z,1013.2
2017-11-17T02:02:05.516Z,1013.2
2017-11-17T02:03:07.156Z,1013.2
2017-11-17T02:04:09.876Z,1013.2
2017-11-17T02:05:11.526Z,1013.2
2017-11-17T02:06:13.224Z,1013.2
2017-11-17T02:07:14.817Z,1013.2
2017-11-17T02:08:16.488Z,1013.2
2017-11-17T02:09:18.161Z,1013.2
2017-11-17T02:10:19.852Z,1013.2
2017-11-17T02:11:21.510Z,1013.3
2017-11-17T02:12:23.219Z,1013.2
2017-11-17T02:13:24.789Z,1013.2
2017-11-17T02:14:27.395Z,1013.2
2017-11-17T02:15:28.983Z,1013.2
2017-11-17T02:16:30.713Z,1013.2
2017-11-17T02:17:32.370Z,1013.2
2017-11-17T02:18:34.916Z,1013.3
2017-11-17T02:19:36.446Z,1013.2
2017-11-17T02:20:38.045Z,1013.2
2017-11-17T02:21:39.609Z,1013.2
2017-11-17T02:22:41.279Z,1013.2
2017-11-17T02:23:42.907Z,1013.2
2017-11-17T02:24:44.474Z,1013.1
2017-11-17T02:25:46.041Z,1013.2
2017-11-17T02:26:47.736Z,1013.2
2017-11-17T02:27:49.294Z,1013.1
2017-11-17T02:28:50.966Z,1013.2
2017-11-17T02:29:52.638Z,1013.2
2017-11-17T02:30:54.323Z,1013.3
2017-11-17T02:31:55.902Z,1013.3
2017-11-17T02:32:57.527Z,1013.3
2017-11-17T02:33:59.143Z,1013.3
2017-11-17T02:35:00.801Z,1013.3
2017-11-17T02:36:02.405Z,1013.3
2017-11-17T02:37:05.185Z,1013.3
2017-11-17T02:38:06.875Z,1013.3
2017-11-17T02:39:10.632Z,1013.3
2017-11-17T02:40:12.255Z,1013.3
2017-11-17T02:41:13.918Z,1013.3
2017-11-17T02:42:15.528Z,1013.3
2017-11-17T02:43:17.192Z,1013.2
2017-11-17T02:44:18.807Z,1013.2
2017-11-17T02:45:20.509Z,1013.2
2017-11-17T02:46:22.141Z,1013.3
2017-11-17T02:47:23.837Z,1013.3
2017-11-17T02:48:25.486Z,1013.3
2017-11-17T02:49:28.167Z,1013.2
2017-11-17T02:50:29.727Z,1013.3
2017-11-17T02:51:32.412Z,1013.3
2017-11-17T02:52:34.033Z,1013.3
2017-11-17T02:53:35.658Z,1013.3
2017-11-17T02:54:37.212Z,1013.3
2017-11-17T02:55:38.879Z,1013.3
2017-11-17T02:56:40.520Z,1013.3
2017-11-17T02:57:42.247Z,1013.4
2017-11-17T02:58:43.900Z,1013.4
2017-11-17T02:59:46.662Z,1013.4
2017-11-17T03:00:48.279Z,1013.4
2017-11-17T03:01:50.002Z,1013.4
2017-11-17T03:02:51.657Z,1013.4
2017-11-17T03:03:53.366Z,1013.4
2017-11-17T03:04:54.988Z,1013.4
2017-11-17T03:05:56.546Z,1013.4
2017-11-17T03:06:58.200Z,1013.4
2017-11-17T03:08:00.822Z,1013.4
2017-11-17T03:09:02.351Z,1013.4
2017-11-17T03:10:04.018Z,1013.3
2017-11-17T03:11:05.644Z,1013.3
2017-11-17T03:12:07.288Z,1013.3
2017-11-17T03:13:08.845Z,1013.3
2017-11-17T03:14:10.465Z,1013.3
2017-11-17T03:15:12.058Z,1013.3
2017-11-17T03:16:13.647Z,1013.3
2017-11-17T03:17:15.292Z,1013.3
2017-11-17T03:18:17.033Z,1013.4
2017-11-17T03:19:18.598Z,1013.4
2017-11-17T03:20:20.204Z,1013.4
2017-11-17T03:21:21.790Z,1013.4
2017-11-17T03:22:23.465Z,1013.4
2017-11-17T03:23:25.028Z,1013.4
2017-11-17T03:24:26.706Z,1013.3
2017-11-17T03:25:28.215Z,1013.4
2017-11-17T03:26:30.765Z,1013.4
2017-11-17T03:27:32.300Z,1013.4
2017-11-17T03:28:33.918Z,1013.4
2017-11-17T03:29:35.384Z,1013.4
2017-11-17T03:30:36.943Z,1013.4
2017-11-17T03:31:38.454Z,1013.4
2017-11-17T03:32:40.062Z,1013.4
2017-11-17T03:33:41.659Z,1013.5
2017-11-17T03:34:45.209Z,1013.4
2017-11-17T03:35:45.720Z,1013.4
2017-11-17T03:36:47.434Z,1013.4
2017-11-17T03:37:48.998Z,1013.4
2017-11-17T03:38:50.580Z,1013.4
2017-11-17T03:39:52.186Z,1013.4
2017-11-17T03:40:53.809Z,1013.4
2017-11-17T03:41:55.361Z,1013.3
2017-11-17T03:42:57.055Z,1013.3
2017-11-17T03:43:58.636Z,1013.3
2017-11-17T03:45:00.223Z,1013.3
2017-11-17T03:46:01.832Z,1013.2
2017-11-17T03:47:04.368Z,1013.2
2017-11-17T03:48:05.916Z,1013.2
2017-11-17T03:49:07.559Z,1013.2
2017-11-17T03:50:09.157Z,1013.2
2017-11-17T03:51:10.872Z,1013.2
2017-11-17T03:52:12.546Z,1013.3
2017-11-17T03:53:14.210Z,1013.3
2017-11-17T03:54:15.759Z,1013.3
2017-11-17T03:55:17.478Z,1013.3
2017-11-17T03:56:19.088Z,1013.3
2017-11-17T03:57:20.794Z,1013.3
2017-11-17T03:58:22.387Z,1013.2
2017-11-17T03:59:24.112Z,1013.3
2017-11-17T04:00:25.728Z,1013.2
2017-11-17T04:01:27.407Z,1013.3
2017-11-17T04:02:29.822Z,1013.2
2017-11-17T04:03:31.426Z,1013.2
2017-11-17T04:04:33.015Z,1013.2
2017-11-17T04:05:34.689Z,1013.2
2017-11-17T04:06:36.278Z,1013.2
2017-11-17T04:07:38.046Z,1013.2
2017-11-17T04:08:39.645Z,1013.3
2017-11-17T04:09:41.362Z,1013.2
2017-11-17T04:10:42.874Z,1013.3
2017-11-17T04:11:44.474Z,1013.3
2017-11-17T04:12:46.008Z,1013.3
2017-11-17T04:13:47.517Z,1013.3
2017-11-17T04:14:49.004Z,1013.3
2017-11-17T04:15:50.620Z,1013.3
2017-11-17T04:16:52.149Z,1013.3
2017-11-17T04:17:53.778Z,1013.3
2017-11-17T04:18:55.375Z,1013.3
2017-11-17T04:19:57.979Z,1013.3
2017-11-17T04:20:59.631Z,1013.4
2017-11-17T04:22:01.222Z,1013.4
2017-11-17T04:23:02.748Z,1013.4
2017-11-17T04:24:04.321Z,1013.4
2017-11-17T04:25:05.831Z,1013.3
2017-11-17T04:26:07.400Z,1013.3
2017-11-17T04:27:08.948Z,1013.3
2017-11-17T04:28:10.524Z,1013.2
2017-11-17T04:29:12.001Z,1013.2
2017-11-17T04:30:13.585Z,1013.2
2017-11-17T04:31:15.120Z,1013.2
2017-11-17T04:32:17.757Z,1013.2
2017-11-17T04:33:19.304Z,1013.2
2017-11-17T04:34:20.870Z,1013.2
2017-11-17T04:35:22.375Z,1013.2
2017-11-17T04:36:23.906Z,1013.2
2017-11-17T04:37:25.432Z,1013.2
2017-11-17T04:38:26.998Z,1013.2
2017-11-17T04:39:28.585Z,1013.3
2017-11-17T04:40:30.094Z,1013.2
2017-11-17T04:41:31.574Z,1013.3
2017-11-17T04:42:33.160Z,1013.3
2017-11-17T04:43:34.679Z,1013.3
2017-11-17T04:44:36.248Z,1013.3
2017-11-17T04:45:37.796Z,1013.3
2017-11-17T04:46:39.353Z,1013.3
2017-11-17T04:47:40.898Z,1013.3
2017-11-17T04:48:43.469Z,1013.4
2017-11-17T04:49:44.988Z,1013.4
2017-11-17T04:50:46.571Z,1013.4
2017-11-17T04:51:48.075Z,1013.4
2017-11-17T04:52:49.658Z,1013.4
2017-11-17T04:53:51.292Z,1013.4
2017-11-17T04:54:52.897Z,1013.4
2017-11-17T04:55:54.496Z,1013.5
2017-11-17T04:56:56.162Z,1013.5
2017-11-17T04:57:57.812Z,1013.5
2017-11-17T04:58:59.446Z,1013.5
2017-11-17T05:00:02.050Z,1013.5
2017-11-17T05:01:03.632Z,1013.5
2017-11-17T05:02:06.176Z,1013.5
2017-11-17T05:03:07.749Z,1013.5
2017-11-17T05:04:09.404Z,1013.5
2017-11-17T05:05:10.901Z,1013.5
2017-11-17T05:06:12.473Z,1013.5
2017-11-17T05:07:13.993Z,1013.5
2017-11-17T05:08:15.564Z,1013.5
2017-11-17T05:09:17.081Z,1013.5
2017-11-17T05:10:18.644Z,1013.6
2017-11-17T05:11:20.140Z,1013.5
2017-11-17T05:12:21.737Z,1013.5
2017-11-17T05:13:23.307Z,1013.5
2017-11-17T05:14:24.978Z,1013.5
2017-11-17T05:15:26.495Z,1013.6
2017-11-17T05:16:29.061Z,1013.6
2017-11-17T05:17:30.675Z,1013.6
2017-11-17T05:18:32.241Z,1013.6
2017-11-17T05:19:33.738Z,1013.6
2017-11-17T05:20:35.313Z,1013.6
2017-11-17T05:21:36.969Z,1013.6
2017-11-17T05:22:39.536Z,1013.6
2017-11-17T05:23:41.063Z,1013.6
2017-11-17T05:24:42.703Z,1013.6
2017-11-17T05:25:44.253Z,1013.7
2017-11-17T05:26:45.907Z,1013.7
2017-11-17T05:27:47.443Z,1013.7
2017-11-17T05:28:49.070Z,1013.7
2017-11-17T05:29:50.623Z,1013.7
2017-11-17T05:30:52.235Z,1013.7
2017-11-17T05:31:53.868Z,1013.7
2017-11-17T05:32:55.481Z,1013.7
2017-11-17T05:33:58.171Z,1013.6
2017-11-17T05:34:59.757Z,1013.6
2017-11-17T05:36:01.379Z,1013.6
2017-11-17T05:37:02.995Z,1013.6
2017-11-17T05:38:04.735Z,1013.6
2017-11-17T05:39:06.426Z,1013.6
2017-11-17T05:40:09.050Z,1013.6
2017-11-17T05:41:10.689Z,1013.6
2017-11-17T05:42:13.304Z,1013.6
2017-11-17T05:43:15.071Z,1013.6
2017-11-17T05:44:16.698Z,1013.6
2017-11-17T05:45:18.349Z,1013.6
2017-11-17T05:46:20.019Z,1013.5
2017-11-17T05:47:21.662Z,1013.6
2017-11-17T05:48:23.458Z,1013.6
2017-11-17T05:49:25.014Z,1013.5
2017-11-17T05:50:26.579Z,1013.6
2017-11-17T05:51:28.229Z,1013.6
2017-11-17T05:52:29.841Z,1013.6
2017-11-17T05:53:31.548Z,1013.7
2017-11-17T05:54:33.134Z,1013.7
2017-11-17T05:55:35.836Z,1013.7
2017-11-17T05:56:37.365Z,1013.7
2017-11-17T05:57:38.889Z,1013.7
2017-11-17T05:58:40.369Z,1013.7
2017-11-17T05:59:43.077Z,1013.7
2017-11-17T06:00:44.552Z,1013.7
2017-11-17T06:01:47.100Z,1013.7
2017-11-17T06:02:48.601Z,1013.7
2017-11-17T06:03:50.197Z,1013.7
2017-11-17T06:04:51.772Z,1013.6
2017-11-17T06:05:53.330Z,1013.6
2017-11-17T06:06:54.788Z,1013.6
2017-11-17T06:07:56.385Z,1013.5
2017-11-17T06:08:57.842Z,1013.6
2017-11-17T06:09:59.601Z,1013.5
2017-11-17T06:11:01.231Z,1013.5
2017-11-17T06:12:02.812Z,1013.5
2017-11-17T06:13:04.378Z,1013.5
2017-11-17T06:14:05.961Z,1013.5
2017-11-17T06:15:07.528Z,1013.5
2017-11-17T06:16:09.145Z,1013.5
2017-11-17T06:17:10.694Z,1013.5
2017-11-17T06:18:12.373Z,1013.5
2017-11-17T06:19:13.979Z,1013.5
2017-11-17T06:20:15.499Z,1013.5
2017-11-17T06:21:17.078Z,1013.5
2017-11-17T06:22:18.704Z,1013.6
2017-11-17T06:23:20.303Z,1013.6
2017-11-17T06:24:22.037Z,1013.6
2017-11-17T06:25:23.603Z,1013.7
2017-11-17T06:26:25.214Z,1013.7
2017-11-17T06:27:26.850Z,1013.7
2017-11-17T06:28:28.510Z,1013.7
2017-11-17T06:29:30.053Z,1013.7
2017-11-17T06:30:31.737Z,1013.7
2017-11-17T06:31:33.321Z,1013.7
2017-11-17T06:32:34.989Z,1013.7
2017-11-17T06:33:36.607Z,1013.7
2017-11-17T06:34:38.144Z,1013.7
2017-11-17T06:35:39.820Z,1013.7
2017-11-17T06:36:41.400Z,1013.8
2017-11-17T06:37:42.854Z,1013.8
2017-11-17T06:38:44.414Z,1013.8
2017-11-17T06:39:45.970Z,1013.7
2017-11-17T06:40:47.612Z,1013.8
2017-11-17T06:41:49.200Z,1013.8
2017-11-17T06:42:50.900Z,1013.8
2017-11-17T06:43:52.547Z,1013.8
2017-11-17T06:44:54.053Z,1013.8
2017-11-17T06:45:55.561Z,1013.8
2017-11-17T06:46:57.123Z,1013.8
2017-11-17T06:47:58.642Z,1013.8
2017-11-17T06:49:00.259Z,1013.8
2017-11-17T06:50:01.883Z,1013.8
2017-11-17T06:51:03.475Z,1013.8
2017-11-17T06:52:05.089Z,1013.8
2017-11-17T06:53:06.767Z,1013.9
2017-11-17T06:54:08.254Z,1013.9
2017-11-17T06:55:09.848Z,1013.9
2017-11-17T06:56:11.471Z,1013.9
2017-11-17T06:57:13.145Z,1013.9
2017-11-17T06:58:14.682Z,1013.9
2017-11-17T06:59:16.288Z,1013.9
2017-11-17T07:00:17.830Z,1014.0
2017-11-17T07:01:19.394Z,1014.0
2017-11-17T07:02:20.990Z,1014.0
2017-11-17T07:03:23.027Z,1014.0
2017-11-17T07:04:24.669Z,1014.0
2017-11-17T07:05:26.417Z,1014.0
2017-11-17T07:06:27.996Z,1014.0
2017-11-17T07:07:29.738Z,1014.0
2017-11-17T07:08:31.280Z,1014.0
2017-11-17T07:09:32.801Z,1014.0
2017-11-17T07:10:34.437Z,1014.1
2017-11-17T07:11:35.946Z,1014.1
2017-11-17T07:12:37.605Z,1014.1
2017-11-17T07:13:39.122Z,1014.1
2017-11-17T07:14:40.779Z,1014.1
2017-11-17T07:15:42.399Z,1014.1
2017-11-17T07:16:44.934Z,1014.1
2017-11-17T07:17:46.418Z,1014.1
2017-11-17T07:18:48.044Z,1014.1
2017-11-17T07:19:49.588Z,1014.1
2017-11-17T07:20:51.121Z,1014.1
2017-11-17T07:21:52.696Z,1014.2
2017-11-17T07:22:54.360Z,1014.2
2017-11-17T07:23:55.935Z,1014.2
2017-11-17T07:24:57.608Z,1014.2
2017-11-17T07:25:59.296Z,1014.2
2017-11-17T07:27:00.973Z,1014.2
2017-11-17T07:28:02.547Z,1014.2
2017-11-17T07:29:04.247Z,1014.2
2017-11-17T07:30:05.863Z,1014.2
2017-11-17T07:31:08.607Z,1014.2
2017-11-17T07:32:10.287Z,1014.2
2017-11-17T07:33:11.943Z,1014.3
2017-11-17T07:34:14.394Z,1014.2
2017-11-17T07:35:15.929Z,1014.2
2017-11-17T07:36:17.480Z,1014.2
2017-11-17T07:37:19.128Z,1014.2
2017-11-17T07:38:20.734Z,1014.2
2017-11-17T07:39:22.790Z,1014.2
2017-11-17T07:40:24.406Z,1014.2
2017-11-17T07:41:26.082Z,1014.2
2017-11-17T07:42:27.621Z,1014.2
2017-11-17T07:43:30.182Z,1014.2
2017-11-17T07:44:31.738Z,1014.1
2017-11-17T07:45:33.340Z,1014.2
2017-11-17T07:46:34.947Z,1014.2
2017-11-17T07:47:36.692Z,1014.2
2017-11-17T07:48:38.353Z,1014.2
2017-11-17T07:49:40.053Z,1014.1
2017-11-17T07:50:41.614Z,1014.1
2017-11-17T07:51:43.348Z,1014.1
2017-11-17T07:52:44.982Z,1014.2
2017-11-17T07:53:46.640Z,1014.1
2017-11-17T07:54:48.480Z,1014.2
2017-11-17T07:55:50.914Z,1014.1
2017-11-17T07:56:52.618Z,1014.2
2017-11-17T07:57:54.535Z,1014.1
2017-11-17T07:58:56.352Z,1014.2
2017-11-17T07:59:58.100Z,1014.2
2017-11-17T08:01:02.578Z,1014.2
2017-11-17T08:02:04.198Z,1014.2
2017-11-17T08:03:05.865Z,1014.3
2017-11-17T08:04:07.634Z,1014.2
2017-11-17T08:05:09.271Z,1014.3
2017-11-17T08:06:11.989Z,1014.3
2017-11-17T08:07:13.523Z,1014.3
2017-11-17T08:08:15.557Z,1014.3
2017-11-17T08:09:17.261Z,1014.3
2017-11-17T08:10:19.894Z,1014.3
2017-11-17T08:11:21.457Z,1014.3
2017-11-17T08:12:23.244Z,1014.4
2017-11-17T08:13:24.934Z,1014.3
2017-11-17T08:14:26.570Z,1014.4
2017-11-17T08:15:28.216Z,1014.4
2017-11-17T08:16:30.417Z,1014.4
2017-11-17T08:17:31.908Z,1014.4
2017-11-17T08:18:33.694Z,1014.4
2017-11-17T08:19:35.298Z,1014.4
2017-11-17T08:20:38.043Z,1014.4
2017-11-17T08:21:39.687Z,1014.3
2017-11-17T08:22:41.292Z,1014.3
2017-11-17T08:23:42.882Z,1014.3
2017-11-17T08:24:45.459Z,1014.3
2017-11-17T08:25:47.865Z,1014.3
2017-11-17T08:26:49.735Z,1014.4
2017-11-17T08:27:51.474Z,1014.4
2017-11-17T08:28:53.210Z,1014.4
2017-11-17T08:29:54.881Z,1014.4
2017-11-17T08:30:56.702Z,1014.4
2017-11-17T08:31:58.253Z,1014.5
2017-11-17T08:33:00.761Z,1014.5
2017-11-17T08:34:02.332Z,1014.5
2017-11-17T08:35:03.897Z,1014.5
2017-11-17T08:36:05.653Z,1014.5
2017-11-17T08:37:07.314Z,1014.5
2017-11-17T08:38:08.879Z,1014.5
2017-11-17T08:39:14.309Z,1014.5
2017-11-17T08:40:19.576Z,1014.6
2017-11-17T08:41:25.475Z,1014.6
2017-11-17T08:42:27.026Z,1014.6
2017-11-17T08:43:28.649Z,1014.6
2017-11-17T08:44:30.307Z,1014.6
2017-11-17T08:45:32.060Z,1014.5
2017-11-17T08:46:33.716Z,1014.6
2017-11-17T08:47:35.461Z,1014.6
2017-11-17T08:48:37.033Z,1014.6
2017-11-17T08:49:38.879Z,1014.6
2017-11-17T08:50:40.574Z,1014.7
2017-11-17T08:51:42.305Z,1014.6
2017-11-17T08:52:43.839Z,1014.6
2017-11-17T08:53:45.631Z,1014.7
2017-11-17T08:54:47.068Z,1014.7
2017-11-17T08:55:48.724Z,1014.6
2017-11-17T08:56:50.354Z,1014.7
2017-11-17T08:57:52.040Z,1014.6
2017-11-17T08:58:53.749Z,1014.7
2017-11-17T08:59:55.437Z,1014.6
2017-11-17T09:00:57.000Z,1014.7
2017-11-17T09:01:58.870Z,1014.7
2017-11-17T09:03:00.437Z,1014.7
2017-11-17T09:04:03.149Z,1014.8
2017-11-17T09:05:04.881Z,1014.7
2017-11-17T09:06:07.121Z,1014.7
2017-11-17T09:07:08.511Z,1014.7
2017-11-17T09:08:10.170Z,1014.8
2017-11-17T09:09:11.646Z,1014.7
2017-11-17T09:10:13.324Z,1014.7
2017-11-17T09:11:14.891Z,1014.7
2017-11-17T09:12:16.571Z,1014.7
2017-11-17T09:13:18.128Z,1014.7
2017-11-17T09:14:19.719Z,1014.8
2017-11-17T09:15:21.307Z,1014.7
2017-11-17T09:16:22.959Z,1014.7
2017-11-17T09:17:25.573Z,1014.7
2017-11-17T09:18:27.142Z,1014.6
2017-11-17T09:19:28.811Z,1014.6
2017-11-17T09:20:30.329Z,1014.6
2017-11-17T09:21:32.051Z,1014.7
2017-11-17T09:22:33.734Z,1014.6
2017-11-17T09:23:35.598Z,1014.6
2017-11-17T09:24:37.131Z,1014.7
2017-11-17T09:25:39.275Z,1014.7
2017-11-17T09:26:40.820Z,1014.7
2017-11-17T09:27:42.456Z,1014.7
2017-11-17T09:28:43.947Z,1014.7
2017-11-17T09:29:45.567Z,1014.7
2017-11-17T09:30:47.127Z,1014.7
2017-11-17T09:31:48.743Z,1014.7
2017-11-17T09:32:50.359Z,1014.7
2017-11-17T09:33:52.045Z,1014.7
2017-11-17T09:34:53.577Z,1014.7
2017-11-17T09:35:56.258Z,1014.7
2017-11-17T09:36:57.833Z,1014.7
2017-11-17T09:37:59.465Z,1014.7
2017-11-17T09:39:01.115Z,1014.7
2017-11-17T09:40:02.830Z,1014.7
2017-11-17T09:41:04.383Z,1014.7
2017-11-17T09:42:06.018Z,1014.7
2017-11-17T09:43:07.641Z,1014.8
2017-11-17T09:44:09.314Z,1014.8
2017-11-17T09:45:10.910Z,1014.7
2017-11-17T09:46:13.564Z,1014.7
2017-11-17T09:47:15.141Z,1014.7
2017-11-17T09:48:16.978Z,1014.7
2017-11-17T09:49:18.631Z,1014.7
2017-11-17T09:50:20.233Z,1014.7
2017-11-17T09:51:21.883Z,1014.7
2017-11-17T09:52:23.725Z,1014.7
2017-11-17T09:53:25.439Z,1014.7
2017-11-17T09:54:28.177Z,1014.6
2017-11-17T09:55:29.858Z,1014.6
2017-11-17T09:56:31.605Z,1014.6
2017-11-17T09:57:33.212Z,1014.6
2017-11-17T09:58:35.855Z,1014.5
2017-11-17T09:59:37.365Z,1014.5
2017-11-17T10:00:39.239Z,1014.6
2017-11-17T10:01:40.754Z,1014.6
2017-11-17T10:02:42.425Z,1014.6
2017-11-17T10:03:44.045Z,1014.6
2017-11-17T10:04:45.658Z,1014.6
2017-11-17T10:05:47.268Z,1014.6
2017-11-17T10:06:50.062Z,1014.6
2017-11-17T10:07:51.612Z,1014.6
2017-11-17T10:08:53.168Z,1014.6
2017-11-17T10:09:54.733Z,1014.6
2017-11-17T10:10:56.342Z,1014.5
2017-11-17T10:11:57.882Z,1014.5
2017-11-17T10:12:59.607Z,1014.5
2017-11-17T10:14:01.276Z,1014.5
2017-11-17T10:15:02.880Z,1014.5
2017-11-17T10:16:09.597Z,1014.6
2017-11-17T10:17:11.288Z,1014.6
2017-11-17T10:18:13.341Z,1014.6
2017-11-17T10:19:15.028Z,1014.5
2017-11-17T10:20:16.804Z,1014.5
2017-11-17T10:21:18.464Z,1014.5
2017-11-17T10:22:20.169Z,1014.5
2017-11-17T10:23:21.917Z,1014.5
2017-11-17T10:24:23.693Z,1014.5
2017-11-17T10:25:25.360Z,1014.5
2017-11-17T10:26:26.941Z,1014.5
2017-11-17T10:27:28.653Z,1014.5
2017-11-17T10:28:30.344Z,1014.5
2017-11-17T10:29:31.999Z,1014.5
2017-11-17T10:30:33.753Z,1014.6
2017-11-17T10:31:35.418Z,1014.5
2017-11-17T10:32:37.222Z,1014.6
2017-11-17T10:33:38.987Z,1014.6
2017-11-17T10:34:41.638Z,1014.6
2017-11-17T10:35:43.397Z,1014.5
2017-11-17T10:36:46.068Z,1014.5
2017-11-17T10:37:47.681Z,1014.5
2017-11-17T10:38:49.377Z,1014.5
2017-11-17T10:39:50.960Z,1014.5
2017-11-17T10:40:52.591Z,1014.5
2017-11-17T10:41:54.349Z,1014.5
2017-11-17T10:42:56.114Z,1014.5
2017-11-17T10:43:57.756Z,1014.5
2017-11-17T10:44:59.476Z,1014.5
2017-11-17T10:46:01.258Z,1014.5
2017-11-17T10:47:02.925Z,1014.5
2017-11-17T10:48:04.476Z,1014.5
2017-11-17T10:49:07.023Z,1014.4
2017-11-17T10:50:08.536Z,1014.5
2017-11-17T10:51:10.166Z,1014.4
2017-11-17T10:52:11.659Z,1014.5
2017-11-17T10:53:14.216Z,1014.5
2017-11-17T10:54:15.756Z,1014.5
2017-11-17T10:55:17.291Z,1014.5
2017-11-17T10:56:18.783Z,1014.6
2017-11-17T10:57:20.444Z,1014.6
2017-11-17T10:58:22.063Z,1014.6
2017-11-17T10:59:23.680Z,1014.6
2017-11-17T11:00:25.248Z,1014.6
2017-11-17T11:01:28.001Z,1014.6
2017-11-17T11:02:29.606Z,1014.6
2017-11-17T11:03:31.308Z,1014.6
2017-11-17T11:04:32.901Z,1014.5
2017-11-17T11:05:34.518Z,1014.6
2017-11-17T11:06:36.219Z,1014.6
2017-11-17T11:07:37.937Z,1014.5
2017-11-17T11:08:39.729Z,1014.5
2017-11-17T11:09:41.717Z,1014.5
2017-11-17T11:10:43.238Z,1014.6
2017-11-17T11:11:44.896Z,1014.6
2017-11-17T11:12:46.686Z,1014.5
2017-11-17T11:13:48.392Z,1014.5
2017-11-17T11:14:50.115Z,1014.5
2017-11-17T11:15:52.133Z,1014.4
2017-11-17T11:16:53.850Z,1014.5
2017-11-17T11:17:55.510Z,1014.4
2017-11-17T11:18:57.197Z,1014.5
2017-11-17T11:19:58.827Z,1014.5
2017-11-17T11:21:00.636Z,1014.4
2017-11-17T11:22:02.325Z,1014.4
2017-11-17T11:23:04.049Z,1014.4
2017-11-17T11:24:05.671Z,1014.4
2017-11-17T11:25:08.337Z,1014.4
2017-11-17T11:26:10.019Z,1014.4
2017-11-17T11:27:11.852Z,1014.4
2017-11-17T11:28:13.598Z,1014.4
2017-11-17T11:29:15.406Z,1014.4
2017-11-17T11:30:17.035Z,1014.4
2017-11-17T11:31:18.787Z,1014.4
2017-11-17T11:32:20.412Z,1014.4
2017-11-17T11:33:22.155Z,1014.3
2017-11-17T11:34:23.744Z,1014.3
2017-11-17T11:35:25.474Z,1014.2
2017-11-17T11:36:27.138Z,1014.3
2017-11-17T11:37:28.796Z,1014.3
2017-11-17T11:38:30.456Z,1014.3
2017-11-17T11:39:32.120Z,1014.3
2017-11-17T11:40:33.957Z,1014.3
2017-11-17T11:41:36.735Z,1014.3
2017-11-17T11:42:38.340Z,1014.3
2017-11-17T11:43:39.902Z,1014.3
2017-11-17T11:44:41.459Z,1014.3
2017-11-17T11:45:43.072Z,1014.2
2017-11-17T11:46:44.633Z,1014.2
2017-11-17T11:47:46.520Z,1014.2
2017-11-17T11:48:48.172Z,1014.3
2017-11-17T11:49:49.833Z,1014.3
2017-11-17T11:50:51.362Z,1014.3
2017-11-17T11:51:53.141Z,1014.2
2017-11-17T11:52:54.684Z,1014.3
2017-11-17T11:53:56.445Z,1014.3
2017-11-17T11:54:58.417Z,1014.3
2017-11-17T11:56:00.335Z,1014.3
2017-11-17T11:57:02.058Z,1014.3
2017-11-17T11:58:03.781Z,1014.2
2017-11-17T11:59:05.583Z,1014.2
2017-11-17T12:00:07.244Z,1014.2
2017-11-17T12:01:10.033Z,1014.2
2017-11-17T12:02:11.597Z,1014.2
2017-11-17T12:03:13.153Z,1014.2
2017-11-17T12:04:14.887Z,1014.2
2017-11-17T12:05:16.408Z,1014.2
2017-11-17T12:06:18.046Z,1014.2
2017-11-17T12:07:19.686Z,1014.2
2017-11-17T12:08:21.438Z,1014.2
2017-11-17T12:09:23.014Z,1014.2
2017-11-17T12:10:26.175Z,1014.1
2017-11-17T12:11:28.156Z,1014.2
2017-11-17T12:12:33.252Z,1014.2
2017-11-17T12:13:35.446Z,1014.2
2017-11-17T12:14:36.743Z,1014.2
2017-11-17T12:15:38.480Z,1014.2
2017-11-17T12:16:41.218Z,1014.2
2017-11-17T12:17:47.815Z,1014.2
2017-11-17T12:18:58.272Z,1014.2
2017-11-17T12:20:03.407Z,1014.2
2017-11-17T12:21:06.045Z,1014.1
2017-11-17T12:22:07.585Z,1014.2
2017-11-17T12:23:09.311Z,1014.1
2017-11-17T12:24:10.873Z,1014.1
2017-11-17T12:25:12.694Z,1014.1
2017-11-17T12:26:15.036Z,1014.1
2017-11-17T12:27:17.744Z,1014.1
2017-11-17T12:28:22.092Z,1014.1
2017-11-17T12:29:23.682Z,1014.1
2017-11-17T12:30:25.689Z,1014.1
2017-11-17T12:31:27.397Z,1014.1
2017-11-17T12:32:29.065Z,1014.0
2017-11-17T12:33:30.857Z,1014.0
2017-11-17T12:34:32.511Z,1014.0
2017-11-17T12:35:34.124Z,1014.1
2017-11-17T12:36:35.761Z,1014.1
2017-11-17T12:37:37.507Z,1014.1
2017-11-17T12:38:39.116Z,1014.0
2017-11-17T12:39:40.755Z,1014.0
2017-11-17T12:40:42.478Z,1014.0
2017-11-17T12:41:44.136Z,1014.0
2017-11-17T12:42:45.813Z,1014.0
2017-11-17T12:43:47.560Z,1014.0
2017-11-17T12:44:49.158Z,1014.0
2017-11-17T12:45:51.094Z,1014.0
2017-11-17T12:46:52.621Z,1014.0
2017-11-17T12:47:55.038Z,1014.0
2017-11-17T12:48:56.766Z,1014.0
2017-11-17T12:49:58.846Z,1013.9
2017-11-17T12:51:00.627Z,1014.0